createdAt,value
2023-03-27T00:01:50.494Z,23.37
2023-03-27T00:05:50.408Z,23.36
2023-03-27T00:09:50.423Z,23.35
2023-03-27T00:13:51.475Z,23.35
2023-03-27T00:17:50.597Z,23.34
2023-03-27T00:21:50.536Z,23.34
2023-03-27T00:25:50.457Z,23.33
2023-03-27T00:29:50.444Z,23.33
2023-03-27T00:33:50.392Z,23.31
2023-03-27T00:37:50.376Z,23.32
2023-03-27T00:41:50.293Z,23.31
2023-03-27T00:45:50.297Z,23.32
2023-03-27T00:49:50.220Z,23.31
2023-03-27T00:53:50.260Z,23.31
2023-03-27T00:57:50.235Z,23.29
2023-03-27T01:01:50.237Z,23.30
2023-03-27T01:05:50.120Z,23.29
2023-03-27T01:09:50.102Z,23.29
2023-03-27T01:13:50.073Z,23.28
2023-03-27T01:17:50.092Z,23.28
2023-03-27T01:21:49.986Z,23.28
2023-03-27T01:25:49.983Z,23.27
2023-03-27T01:29:49.934Z,23.26
2023-03-27T01:33:49.859Z,23.25
2023-03-27T01:37:49.850Z,23.25
2023-03-27T01:41:49.819Z,23.25
2023-03-27T01:45:49.773Z,23.25
2023-03-27T01:49:49.767Z,23.24
2023-03-27T01:53:49.896Z,23.24
2023-03-27T01:57:50.284Z,23.23
2023-03-27T02:01:50.151Z,23.23
2023-03-27T02:05:50.197Z,23.23
2023-03-27T02:09:50.337Z,23.22
2023-03-27T02:13:50.340Z,23.22
2023-03-27T02:17:50.402Z,23.21
2023-03-27T02:21:50.395Z,23.22
2023-03-27T02:25:50.421Z,23.20
2023-03-27T02:29:50.421Z,23.20
2023-03-27T02:33:50.379Z,23.19
2023-03-27T02:37:50.521Z,23.19
2023-03-27T02:41:50.387Z,23.19
2023-03-27T02:45:50.462Z,23.18
2023-03-27T02:49:50.386Z,23.18
2023-03-27T02:53:50.427Z,23.18
2023-03-27T02:57:52.416Z,23.18
2023-03-27T03:01:50.434Z,23.17
2023-03-27T03:05:50.392Z,23.16
2023-03-27T03:09:50.382Z,23.17
2023-03-27T03:13:50.364Z,23.16
2023-03-27T03:17:50.462Z,23.16
2023-03-27T03:21:50.337Z,23.16
2023-03-27T03:25:50.346Z,23.16
2023-03-27T03:29:50.313Z,23.15
2023-03-27T03:33:50.267Z,23.14
2023-03-27T03:37:51.044Z,23.14
2023-03-27T03:41:50.259Z,23.14
2023-03-27T03:45:50.290Z,23.14
2023-03-27T03:49:50.272Z,23.14
2023-03-27T03:53:50.222Z,23.14
2023-03-27T03:57:50.229Z,23.14
2023-03-27T04:01:50.255Z,23.13
2023-03-27T04:05:50.214Z,23.12
2023-03-27T04:09:50.225Z,23.11
2023-03-27T04:13:50.224Z,23.11
2023-03-27T04:17:50.258Z,23.11
2023-03-27T04:21:50.221Z,23.11
2023-03-27T04:25:50.210Z,23.10
2023-03-27T04:29:50.187Z,23.09
2023-03-27T04:33:50.189Z,23.09
2023-03-27T04:37:50.218Z,23.09
2023-03-27T04:41:50.201Z,23.08
2023-03-27T04:45:50.212Z,23.09
2023-03-27T04:54:09.073Z,23.07
2023-03-27T04:58:09.049Z,23.08
2023-03-27T05:02:09.007Z,23.07
2023-03-27T05:06:08.952Z,23.07
2023-03-27T05:10:08.954Z,23.07
2023-03-27T05:14:08.928Z,23.06
2023-03-27T05:18:09.112Z,23.05
2023-03-27T05:22:08.813Z,23.06
2023-03-27T05:26:08.776Z,23.05
2023-03-27T05:30:08.794Z,23.05
2023-03-27T05:34:08.717Z,23.01
2023-03-27T05:38:08.695Z,22.31
2023-03-27T05:42:08.668Z,21.41
2023-03-27T05:46:08.695Z,21.88
2023-03-27T05:50:08.574Z,22.29
2023-03-27T05:54:08.524Z,22.58
2023-03-27T05:58:08.555Z,22.81
2023-03-27T06:02:08.527Z,22.99
2023-03-27T06:06:08.458Z,23.12
2023-03-27T06:10:13.625Z,23.24
2023-03-27T06:14:09.507Z,23.35
2023-03-27T06:18:08.568Z,23.42
2023-03-27T06:22:08.415Z,23.50
2023-03-27T06:26:08.409Z,23.55
2023-03-27T06:30:08.389Z,23.62
2023-03-27T06:34:08.324Z,23.67
2023-03-27T06:38:08.345Z,23.72
2023-03-27T06:42:08.281Z,23.77
2023-03-27T06:46:08.283Z,23.87
2023-03-27T06:50:08.182Z,23.91
2023-03-27T06:54:08.206Z,23.98
2023-03-27T06:58:08.403Z,24.04
2023-03-27T07:02:08.101Z,24.09
2023-03-27T07:06:08.106Z,24.13
2023-03-27T07:10:08.348Z,24.07
2023-03-27T07:14:08.009Z,23.70
2023-03-27T07:18:08.082Z,23.46
2023-03-27T07:22:07.952Z,23.30
2023-03-27T07:26:07.889Z,23.22
2023-03-27T07:30:07.992Z,23.40
2023-03-27T07:34:08.395Z,23.57
2023-03-27T07:38:08.366Z,23.58
2023-03-27T07:42:08.317Z,23.54
2023-03-27T07:46:08.651Z,23.60
2023-03-27T07:50:08.520Z,23.70
2023-03-27T07:54:08.443Z,23.78
2023-03-27T07:58:08.482Z,23.85
2023-03-27T08:02:08.394Z,23.93
2023-03-27T08:06:08.388Z,23.99
2023-03-27T08:10:08.341Z,24.03
2023-03-27T08:14:08.261Z,24.07
2023-03-27T08:18:08.287Z,24.11
2023-03-27T08:22:08.225Z,24.14
2023-03-27T08:26:08.193Z,24.19
2023-03-27T08:30:08.125Z,24.22
2023-03-27T08:34:08.160Z,23.82
2023-03-27T08:38:20.031Z,22.31
2023-03-27T08:42:09.015Z,21.05
2023-03-27T08:46:08.048Z,21.63
2023-03-27T08:50:07.970Z,22.30
2023-03-27T08:54:07.976Z,22.87
2023-03-27T08:58:08.061Z,23.28
2023-03-27T09:02:08.240Z,23.60
2023-03-27T09:06:08.394Z,23.83
2023-03-27T09:10:08.562Z,23.99
2023-03-27T09:14:08.581Z,24.14
2023-03-27T09:18:08.708Z,24.23
2023-03-27T09:22:08.730Z,24.32
2023-03-27T09:26:08.765Z,24.43
2023-03-27T09:30:08.774Z,24.55
2023-03-27T09:34:08.757Z,24.18
2023-03-27T09:38:08.904Z,23.83
2023-03-27T09:42:09.123Z,24.02
2023-03-27T09:46:09.246Z,24.22
2023-03-27T09:50:09.348Z,24.40
2023-03-27T09:54:09.307Z,24.52
2023-03-27T09:58:09.331Z,24.60
2023-03-27T10:02:09.326Z,24.63
2023-03-27T10:06:09.241Z,24.66
2023-03-27T10:10:09.238Z,24.66
2023-03-27T10:14:09.354Z,24.70
2023-03-27T10:18:09.448Z,24.72
2023-03-27T10:22:09.512Z,24.70
2023-03-27T10:26:10.881Z,24.73
2023-03-27T10:30:09.444Z,24.76
2023-03-27T10:34:09.542Z,24.18
2023-03-27T10:38:09.674Z,24.25
2023-03-27T10:42:09.739Z,24.45
2023-03-27T10:46:09.881Z,24.64
2023-03-27T10:50:09.682Z,24.79
2023-03-27T10:54:09.733Z,24.92
2023-03-27T10:58:09.660Z,25.03
2023-03-27T11:02:10.018Z,25.14
2023-03-27T11:06:09.551Z,25.23
2023-03-27T11:10:09.519Z,25.33
2023-03-27T11:14:09.480Z,25.36
2023-03-27T11:18:09.461Z,25.40
2023-03-27T11:22:09.450Z,25.48
2023-03-27T11:26:09.364Z,25.47
2023-03-27T11:30:09.328Z,25.37
2023-03-27T11:34:09.290Z,25.07
2023-03-27T11:38:09.311Z,24.77
2023-03-27T11:42:09.239Z,24.47
2023-03-27T11:46:09.190Z,24.31
2023-03-27T11:50:09.174Z,24.28
2023-03-27T11:54:09.145Z,24.34
2023-03-27T11:58:09.121Z,24.42
2023-03-27T12:02:09.047Z,24.44
2023-03-27T12:06:08.995Z,24.46
2023-03-27T12:10:09.003Z,24.48
2023-03-27T12:14:17.723Z,24.48
2023-03-27T12:18:09.951Z,24.48
2023-03-27T12:22:21.128Z,24.47
2023-03-27T12:26:09.840Z,24.46
2023-03-27T12:30:08.990Z,24.45
2023-03-27T12:34:08.849Z,24.45
2023-03-27T12:38:08.720Z,24.43
2023-03-27T12:42:08.712Z,24.41
2023-03-27T12:46:08.828Z,24.38
2023-03-27T12:50:08.640Z,24.38
2023-03-27T12:54:08.698Z,24.35
2023-03-27T12:58:08.937Z,24.35
2023-03-27T13:02:08.905Z,24.35
2023-03-27T13:06:08.876Z,24.34
2023-03-27T13:10:08.971Z,24.37
2023-03-27T13:14:09.041Z,24.38
2023-03-27T13:18:09.123Z,24.41
2023-03-27T13:22:09.106Z,24.40
2023-03-27T13:26:09.101Z,24.42
2023-03-27T13:30:09.124Z,24.44
2023-03-27T13:34:09.261Z,24.46
2023-03-27T13:38:09.224Z,24.47
2023-03-27T13:42:13.553Z,24.45
2023-03-27T13:46:09.482Z,24.45
2023-03-27T13:50:09.135Z,24.47
2023-03-27T13:54:10.115Z,24.49
2023-03-27T13:58:09.084Z,24.54
2023-03-27T14:02:09.148Z,24.56
2023-03-27T14:06:09.033Z,24.60
2023-03-27T14:10:08.965Z,24.60
2023-03-27T14:14:09.308Z,24.58
2023-03-27T14:18:09.050Z,24.57
2023-03-27T14:22:08.946Z,24.56
2023-03-27T14:26:08.865Z,24.54
2023-03-27T14:30:08.783Z,24.52
2023-03-27T14:34:08.864Z,24.49
2023-03-27T14:38:08.749Z,24.47
2023-03-27T14:42:08.709Z,24.48
2023-03-27T14:46:08.725Z,24.52
2023-03-27T14:50:08.742Z,24.13
2023-03-27T14:54:08.899Z,23.57
2023-03-27T14:58:11.042Z,23.17
2023-03-27T15:02:08.909Z,22.83
2023-03-27T15:06:08.882Z,22.71
2023-03-27T15:10:08.815Z,22.67
2023-03-27T15:14:08.827Z,22.59
2023-03-27T15:18:08.810Z,22.50
2023-03-27T15:22:08.768Z,22.67
2023-03-27T15:26:08.791Z,22.93
2023-03-27T15:30:08.646Z,23.17
2023-03-27T15:34:08.634Z,23.36
2023-03-27T15:38:08.582Z,23.66
2023-03-27T15:42:08.588Z,23.84
2023-03-27T15:46:08.535Z,24.00
2023-03-27T15:50:08.532Z,24.07
2023-03-27T15:54:08.496Z,24.04
2023-03-27T15:58:08.411Z,24.01
2023-03-27T16:02:08.351Z,24.01
2023-03-27T16:06:08.302Z,24.01
2023-03-27T16:10:08.366Z,24.01
2023-03-27T16:14:08.291Z,24.02
2023-03-27T16:18:08.322Z,24.03
2023-03-27T16:22:08.427Z,23.97
2023-03-27T16:26:08.475Z,23.94
2023-03-27T16:30:08.666Z,23.90
2023-03-27T16:34:08.710Z,23.88
2023-03-27T16:38:08.810Z,23.88
2023-03-27T16:42:08.922Z,23.85
2023-03-27T16:46:09.083Z,23.85
2023-03-27T16:50:11.567Z,23.83
2023-03-27T16:54:09.104Z,23.83
2023-03-27T16:58:09.147Z,23.85
2023-03-27T17:02:09.134Z,23.87
2023-03-27T17:06:09.043Z,23.86
2023-03-27T17:10:09.018Z,23.85
2023-03-27T17:14:08.941Z,23.82
2023-03-27T17:18:08.946Z,23.81
2023-03-27T17:22:08.900Z,23.79
2023-03-27T17:26:11.675Z,23.77
2023-03-27T17:30:08.852Z,23.74
2023-03-27T17:34:08.836Z,23.72
2023-03-27T17:38:08.784Z,23.70
2023-03-27T17:42:08.695Z,23.68
2023-03-27T17:46:08.718Z,23.67
2023-03-27T17:50:08.682Z,23.65
2023-03-27T17:54:08.675Z,23.63
2023-03-27T17:58:09.780Z,23.62
2023-03-27T18:02:08.752Z,23.60
2023-03-27T18:06:08.880Z,23.59
2023-03-27T18:10:09.091Z,23.57
2023-03-27T18:14:09.324Z,23.57
2023-03-27T18:18:09.562Z,23.55
2023-03-27T18:22:09.770Z,23.54
2023-03-27T18:26:09.706Z,23.52
2023-03-27T18:30:09.632Z,23.51
2023-03-27T18:34:09.601Z,23.49
2023-03-27T18:38:09.549Z,23.50
2023-03-27T18:42:09.517Z,23.49
2023-03-27T18:46:09.602Z,23.47
2023-03-27T18:50:09.443Z,23.46
2023-03-27T18:54:09.425Z,23.45
2023-03-27T18:58:09.404Z,23.43
2023-03-27T19:02:09.603Z,23.42
2023-03-27T19:06:09.695Z,23.41
2023-03-27T19:10:09.693Z,23.39
2023-03-27T19:14:09.654Z,23.38
2023-03-27T19:18:09.659Z,23.37
2023-03-27T19:22:09.567Z,23.36
2023-03-27T19:26:09.524Z,23.35
2023-03-27T19:30:09.533Z,23.34
2023-03-27T19:34:09.493Z,23.33
2023-03-27T19:38:09.476Z,23.32
2023-03-27T19:42:09.408Z,23.31
2023-03-27T19:46:16.203Z,23.29
2023-03-27T19:50:10.381Z,23.29
2023-03-27T19:54:09.272Z,23.29
2023-03-27T19:58:09.216Z,23.27
2023-03-27T20:02:09.220Z,23.26
2023-03-27T20:06:10.688Z,23.25
2023-03-27T20:10:09.176Z,23.24
2023-03-27T20:14:09.140Z,23.23
2023-03-27T20:18:09.112Z,23.22
2023-03-27T20:22:09.044Z,23.22
2023-03-27T20:26:09.015Z,23.20
2023-03-27T20:30:08.996Z,23.20
2023-03-27T20:34:08.932Z,23.20
2023-03-27T20:38:08.983Z,23.19
2023-03-27T20:42:08.869Z,23.18
2023-03-27T20:46:08.851Z,23.17
2023-03-27T20:50:08.786Z,23.16
2023-03-27T20:54:08.761Z,23.16
2023-03-27T20:58:08.724Z,23.15
2023-03-27T21:02:08.722Z,23.14
2023-03-27T21:06:08.669Z,23.14
2023-03-27T21:10:08.664Z,23.13
2023-03-27T21:14:08.572Z,23.12
2023-03-27T21:18:08.612Z,23.11
2023-03-27T21:22:08.601Z,23.10
2023-03-27T21:26:08.509Z,23.10
2023-03-27T21:30:08.492Z,23.10
2023-03-27T21:34:08.406Z,23.09
2023-03-27T21:38:08.381Z,23.08
2023-03-27T21:42:08.377Z,23.07
2023-03-27T21:46:08.353Z,23.06
2023-03-27T21:50:08.285Z,23.06
2023-03-27T21:54:08.250Z,23.05
2023-03-27T21:58:08.234Z,23.05
2023-03-27T22:02:08.195Z,23.04
2023-03-27T22:06:12.615Z,23.04
2023-03-27T22:10:09.110Z,23.03
2023-03-27T22:14:08.080Z,23.03
2023-03-27T22:18:08.098Z,23.02
2023-03-27T22:22:07.967Z,23.01
2023-03-27T22:26:07.965Z,23.00
2023-03-27T22:30:07.907Z,23.00
2023-03-27T22:34:07.830Z,23.00
2023-03-27T22:38:07.931Z,22.99
2023-03-27T22:42:07.986Z,22.98
2023-03-27T22:46:08.026Z,22.97
2023-03-27T22:50:08.069Z,22.97
2023-03-27T22:54:08.135Z,22.97
2023-03-27T22:58:08.203Z,22.96
2023-03-27T23:02:08.712Z,22.96
2023-03-27T23:06:08.326Z,22.94
2023-03-27T23:10:08.456Z,22.94
2023-03-27T23:14:08.475Z,22.93
2023-03-27T23:18:08.642Z,22.93
2023-03-27T23:22:08.633Z,22.92
2023-03-27T23:26:08.778Z,22.92
2023-03-27T23:30:08.857Z,22.90
2023-03-27T23:34:08.939Z,22.90
2023-03-27T23:38:09.000Z,22.89
2023-03-27T23:42:09.138Z,22.89
2023-03-27T23:46:09.244Z,22.89
2023-03-27T23:50:09.366Z,22.88
2023-03-27T23:54:09.470Z,22.88
2023-03-27T23:58:09.586Z,22.87
